sensor_id;sensor_type;location;lat;lon;timestamp;temperature;humidity
23719;DHT22;43322;52.230;5.702;2023-04-19T00:02:18;8.30;99.90
23719;DHT22;43322;52.230;5.702;2023-04-19T00:04:45;8.30;99.90
23719;DHT22;43322;52.230;5.702;2023-04-19T00:07:13;8.20;99.90
23719;DHT22;43322;52.230;5.702;2023-04-19T00:09:41;8.20;99.90
23719;DHT22;43322;52.230;5.702;2023-04-19T00:12:07;8.20;99.90
23719;DHT22;43322;52.230;5.702;2023-04-19T00:14:34;8.20;99.90
23719;DHT22;43322;52.230;5.702;2023-04-19T00:17:01;8.10;99.90
23719;DHT22;43322;52.230;5.702;2023-04-19T00:19:28;8.10;99.90
23719;DHT22;43322;52.230;5.702;2023-04-19T00:21:54;8.10;99.90
23719;DHT22;43322;52.230;5.702;2023-04-19T00:24:22;8.00;99.90
23719;DHT22;43322;52.230;5.702;2023-04-19T00:26:49;8.00;99.90
23719;DHT22;43322;52.230;5.702;2023-04-19T00:29:16;8.00;99.90
23719;DHT22;43322;52.230;5.702;2023-04-19T00:31:42;8.00;99.90
23719;DHT22;43322;52.230;5.702;2023-04-19T00:34:09;8.00;99.90
23719;DHT22;43322;52.230;5.702;2023-04-19T00:36:36;8.00;99.90
23719;DHT22;43322;52.230;5.702;2023-04-19T00:39:03;8.00;99.90
23719;DHT22;43322;52.230;5.702;2023-04-19T00:41:31;8.00;99.90
23719;DHT22;43322;52.230;5.702;2023-04-19T00:43:58;8.00;99.90
23719;DHT22;43322;52.230;5.702;2023-04-19T00:46:25;8.00;99.90
23719;DHT22;43322;52.230;5.702;2023-04-19T00:48:52;8.00;99.90
23719;DHT22;43322;52.230;5.702;2023-04-19T00:51:19;8.00;99.90
23719;DHT22;43322;52.230;5.702;2023-04-19T00:53:46;8.10;99.90
23719;DHT22;43322;52.230;5.702;2023-04-19T00:56:14;8.00;99.90
23719;DHT22;43322;52.230;5.702;2023-04-19T00:58:42;8.10;99.90
23719;DHT22;43322;52.230;5.702;2023-04-19T01:01:09;8.20;99.90
23719;DHT22;43322;52.230;5.702;2023-04-19T01:03:36;8.20;99.90
23719;DHT22;43322;52.230;5.702;2023-04-19T01:06:02;8.20;99.90
23719;DHT22;43322;52.230;5.702;2023-04-19T01:08:29;8.20;99.90
23719;DHT22;43322;52.230;5.702;2023-04-19T01:10:56;8.30;99.90
23719;DHT22;43322;52.230;5.702;2023-04-19T01:13:23;8.30;99.90
23719;DHT22;43322;52.230;5.702;2023-04-19T01:15:51;8.30;99.90
23719;DHT22;43322;52.230;5.702;2023-04-19T01:18:18;8.30;99.90
23719;DHT22;43322;52.230;5.702;2023-04-19T01:20:44;8.30;99.90
23719;DHT22;43322;52.230;5.702;2023-04-19T01:23:12;8.30;99.90
23719;DHT22;43322;52.230;5.702;2023-04-19T01:25:39;8.20;99.90
23719;DHT22;43322;52.230;5.702;2023-04-19T01:28:06;8.30;99.90
23719;DHT22;43322;52.230;5.702;2023-04-19T01:30:34;8.20;99.90
23719;DHT22;43322;52.230;5.702;2023-04-19T01:33:00;8.20;99.90
23719;DHT22;43322;52.230;5.702;2023-04-19T01:35:27;8.30;99.90
23719;DHT22;43322;52.230;5.702;2023-04-19T01:37:54;8.30;99.90
23719;DHT22;43322;52.230;5.702;2023-04-19T01:40:23;8.30;99.90
23719;DHT22;43322;52.230;5.702;2023-04-19T01:42:51;8.40;99.90
23719;DHT22;43322;52.230;5.702;2023-04-19T01:45:18;8.40;99.90
23719;DHT22;43322;52.230;5.702;2023-04-19T01:47:44;8.40;99.90
23719;DHT22;43322;52.230;5.702;2023-04-19T01:50:11;8.40;99.90
23719;DHT22;43322;52.230;5.702;2023-04-19T01:52:38;8.40;99.90
23719;DHT22;43322;52.230;5.702;2023-04-19T01:55:05;8.40;99.90
23719;DHT22;43322;52.230;5.702;2023-04-19T01:57:33;8.50;99.90
23719;DHT22;43322;52.230;5.702;2023-04-19T02:00:00;8.50;99.90
23719;DHT22;43322;52.230;5.702;2023-04-19T02:02:27;8.40;99.90
23719;DHT22;43322;52.230;5.702;2023-04-19T02:04:53;8.50;99.90
23719;DHT22;43322;52.230;5.702;2023-04-19T02:07:20;8.50;99.90
23719;DHT22;43322;52.230;5.702;2023-04-19T02:09:47;8.50;99.90
23719;DHT22;43322;52.230;5.702;2023-04-19T02:12:13;8.60;99.90
23719;DHT22;43322;52.230;5.702;2023-04-19T02:14:41;8.60;99.90
23719;DHT22;43322;52.230;5.702;2023-04-19T02:17:08;8.60;99.90
23719;DHT22;43322;52.230;5.702;2023-04-19T02:19:36;8.60;99.90
23719;DHT22;43322;52.230;5.702;2023-04-19T02:22:03;8.60;99.90
23719;DHT22;43322;52.230;5.702;2023-04-19T02:24:29;8.70;99.90
23719;DHT22;43322;52.230;5.702;2023-04-19T02:26:56;8.70;99.90
23719;DHT22;43322;52.230;5.702;2023-04-19T02:29:23;8.70;99.90
23719;DHT22;43322;52.230;5.702;2023-04-19T02:31:51;8.70;99.90
23719;DHT22;43322;52.230;5.702;2023-04-19T02:34:17;8.70;99.90
23719;DHT22;43322;52.230;5.702;2023-04-19T02:36:44;8.80;99.90
23719;DHT22;43322;52.230;5.702;2023-04-19T02:39:11;8.80;99.90
23719;DHT22;43322;52.230;5.702;2023-04-19T02:41:38;8.80;99.90
23719;DHT22;43322;52.230;5.702;2023-04-19T02:44:04;8.80;99.90
23719;DHT22;43322;52.230;5.702;2023-04-19T02:46:31;8.80;99.90
23719;DHT22;43322;52.230;5.702;2023-04-19T02:49:00;8.90;99.90
23719;DHT22;43322;52.230;5.702;2023-04-19T02:51:27;8.90;99.90
23719;DHT22;43322;52.230;5.702;2023-04-19T02:53:54;8.80;99.90
23719;DHT22;43322;52.230;5.702;2023-04-19T02:56:21;8.90;99.90
23719;DHT22;43322;52.230;5.702;2023-04-19T02:58:47;8.90;99.90
23719;DHT22;43322;52.230;5.702;2023-04-19T03:01:14;8.90;99.90
23719;DHT22;43322;52.230;5.702;2023-04-19T03:03:41;8.90;99.90
23719;DHT22;43322;52.230;5.702;2023-04-19T03:06:09;8.90;99.90
23719;DHT22;43322;52.230;5.702;2023-04-19T03:08:35;8.90;99.90
23719;DHT22;43322;52.230;5.702;2023-04-19T03:11:02;8.90;99.90
23719;DHT22;43322;52.230;5.702;2023-04-19T03:13:29;9.00;99.90
23719;DHT22;43322;52.230;5.702;2023-04-19T03:15:55;8.90;99.90
23719;DHT22;43322;52.230;5.702;2023-04-19T03:18:22;8.90;99.90
23719;DHT22;43322;52.230;5.702;2023-04-19T03:20:49;8.90;99.90
23719;DHT22;43322;52.230;5.702;2023-04-19T03:23:17;8.90;99.90
23719;DHT22;43322;52.230;5.702;2023-04-19T03:25:43;8.80;99.90
23719;DHT22;43322;52.230;5.702;2023-04-19T03:28:11;8.70;99.90
23719;DHT22;43322;52.230;5.702;2023-04-19T03:30:37;8.70;99.90
23719;DHT22;43322;52.230;5.702;2023-04-19T03:33:04;8.60;99.90
23719;DHT22;43322;52.230;5.702;2023-04-19T03:35:31;8.60;99.90
23719;DHT22;43322;52.230;5.702;2023-04-19T03:37:57;8.40;99.90
23719;DHT22;43322;52.230;5.702;2023-04-19T03:40:25;8.40;99.90
23719;DHT22;43322;52.230;5.702;2023-04-19T03:42:52;8.30;99.90
23719;DHT22;43322;52.230;5.702;2023-04-19T03:45:19;8.30;99.90
23719;DHT22;43322;52.230;5.702;2023-04-19T03:47:46;8.30;99.90
23719;DHT22;43322;52.230;5.702;2023-04-19T03:50:12;8.20;99.90
23719;DHT22;43322;52.230;5.702;2023-04-19T03:52:39;8.20;99.90
23719;DHT22;43322;52.230;5.702;2023-04-19T03:55:07;8.20;99.90
23719;DHT22;43322;52.230;5.702;2023-04-19T03:57:35;8.20;99.90
23719;DHT22;43322;52.230;5.702;2023-04-19T04:00:02;8.20;99.90
23719;DHT22;43322;52.230;5.702;2023-04-19T04:02:31;8.20;99.90
23719;DHT22;43322;52.230;5.702;2023-04-19T04:04:58;8.10;99.90
23719;DHT22;43322;52.230;5.702;2023-04-19T04:07:24;8.10;99.90
23719;DHT22;43322;52.230;5.702;2023-04-19T04:09:51;8.00;99.90
23719;DHT22;43322;52.230;5.702;2023-04-19T04:12:18;8.00;99.90
23719;DHT22;43322;52.230;5.702;2023-04-19T04:14:46;8.00;99.90
23719;DHT22;43322;52.230;5.702;2023-04-19T04:17:12;8.00;99.90
23719;DHT22;43322;52.230;5.702;2023-04-19T04:19:39;7.90;99.90
23719;DHT22;43322;52.230;5.702;2023-04-19T04:22:06;7.90;99.90
23719;DHT22;43322;52.230;5.702;2023-04-19T04:24:37;7.90;99.90
23719;DHT22;43322;52.230;5.702;2023-04-19T04:27:05;7.80;99.90
23719;DHT22;43322;52.230;5.702;2023-04-19T04:29:34;7.80;99.90
23719;DHT22;43322;52.230;5.702;2023-04-19T04:32:02;7.80;99.90
23719;DHT22;43322;52.230;5.702;2023-04-19T04:34:29;7.80;99.90
23719;DHT22;43322;52.230;5.702;2023-04-19T04:36:57;7.70;99.90
23719;DHT22;43322;52.230;5.702;2023-04-19T04:39:24;7.70;99.90
23719;DHT22;43322;52.230;5.702;2023-04-19T04:41:50;7.70;99.90
23719;DHT22;43322;52.230;5.702;2023-04-19T04:44:17;7.60;99.90
23719;DHT22;43322;52.230;5.702;2023-04-19T04:46:46;7.60;99.90
23719;DHT22;43322;52.230;5.702;2023-04-19T04:49:14;7.60;99.90
23719;DHT22;43322;52.230;5.702;2023-04-19T04:51:41;7.50;99.90
23719;DHT22;43322;52.230;5.702;2023-04-19T04:54:08;7.50;99.90
23719;DHT22;43322;52.230;5.702;2023-04-19T04:56:35;7.60;99.90
23719;DHT22;43322;52.230;5.702;2023-04-19T04:59:01;7.50;99.90
23719;DHT22;43322;52.230;5.702;2023-04-19T05:01:29;7.50;99.90
23719;DHT22;43322;52.230;5.702;2023-04-19T05:03:55;7.50;99.90
23719;DHT22;43322;52.230;5.702;2023-04-19T05:06:23;7.50;99.90
23719;DHT22;43322;52.230;5.702;2023-04-19T05:08:51;7.50;99.90
23719;DHT22;43322;52.230;5.702;2023-04-19T05:11:18;7.50;99.90
23719;DHT22;43322;52.230;5.702;2023-04-19T05:13:45;7.60;99.90
23719;DHT22;43322;52.230;5.702;2023-04-19T05:16:11;7.60;99.90
23719;DHT22;43322;52.230;5.702;2023-04-19T05:18:38;7.70;99.90
23719;DHT22;43322;52.230;5.702;2023-04-19T05:21:05;7.70;99.90
23719;DHT22;43322;52.230;5.702;2023-04-19T05:23:36;7.70;99.90
23719;DHT22;43322;52.230;5.702;2023-04-19T05:26:02;7.70;99.90
23719;DHT22;43322;52.230;5.702;2023-04-19T05:28:29;7.70;99.90
23719;DHT22;43322;52.230;5.702;2023-04-19T05:30:56;7.70;99.90
23719;DHT22;43322;52.230;5.702;2023-04-19T05:33:23;7.70;99.90
23719;DHT22;43322;52.230;5.702;2023-04-19T05:35:49;7.70;99.90
23719;DHT22;43322;52.230;5.702;2023-04-19T05:38:16;7.80;99.90
23719;DHT22;43322;52.230;5.702;2023-04-19T05:40:44;7.80;99.90
23719;DHT22;43322;52.230;5.702;2023-04-19T05:43:11;7.80;99.90
23719;DHT22;43322;52.230;5.702;2023-04-19T05:45:38;8.00;99.90
23719;DHT22;43322;52.230;5.702;2023-04-19T05:48:05;8.10;99.90
23719;DHT22;43322;52.230;5.702;2023-04-19T05:50:32;8.20;99.90
23719;DHT22;43322;52.230;5.702;2023-04-19T05:52:58;8.20;99.90
23719;DHT22;43322;52.230;5.702;2023-04-19T05:55:25;8.30;99.90
23719;DHT22;43322;52.230;5.702;2023-04-19T05:57:53;8.30;99.90
23719;DHT22;43322;52.230;5.702;2023-04-19T06:00:20;8.30;99.90
23719;DHT22;43322;52.230;5.702;2023-04-19T06:02:47;8.30;99.90
23719;DHT22;43322;52.230;5.702;2023-04-19T06:05:13;8.40;99.90
23719;DHT22;43322;52.230;5.702;2023-04-19T06:07:40;8.40;99.90
23719;DHT22;43322;52.230;5.702;2023-04-19T06:10:07;8.50;99.90
23719;DHT22;43322;52.230;5.702;2023-04-19T06:12:34;8.50;99.90
23719;DHT22;43322;52.230;5.702;2023-04-19T06:15:03;8.50;99.90
23719;DHT22;43322;52.230;5.702;2023-04-19T06:17:30;8.60;99.90
23719;DHT22;43322;52.230;5.702;2023-04-19T06:19:56;8.90;99.90
23719;DHT22;43322;52.230;5.702;2023-04-19T06:22:23;9.00;99.90
23719;DHT22;43322;52.230;5.702;2023-04-19T06:24:50;9.30;99.90
23719;DHT22;43322;52.230;5.702;2023-04-19T06:27:16;9.50;99.90
23719;DHT22;43322;52.230;5.702;2023-04-19T06:29:43;9.50;99.90
23719;DHT22;43322;52.230;5.702;2023-04-19T06:32:11;9.50;99.90
23719;DHT22;43322;52.230;5.702;2023-04-19T06:34:38;9.40;99.90
23719;DHT22;43322;52.230;5.702;2023-04-19T06:37:04;9.50;99.90
23719;DHT22;43322;52.230;5.702;2023-04-19T06:39:31;9.50;99.90
23719;DHT22;43322;52.230;5.702;2023-04-19T06:41:58;9.70;99.90
23719;DHT22;43322;52.230;5.702;2023-04-19T06:44:26;9.70;99.90
23719;DHT22;43322;52.230;5.702;2023-04-19T06:46:53;9.70;99.90
23719;DHT22;43322;52.230;5.702;2023-04-19T06:49:21;9.60;99.90
23719;DHT22;43322;52.230;5.702;2023-04-19T06:51:47;9.50;99.90
23719;DHT22;43322;52.230;5.702;2023-04-19T06:54:14;9.50;99.90
23719;DHT22;43322;52.230;5.702;2023-04-19T06:56:42;9.60;99.90
23719;DHT22;43322;52.230;5.702;2023-04-19T06:59:11;9.60;99.90
23719;DHT22;43322;52.230;5.702;2023-04-19T07:01:38;10.00;99.90
23719;DHT22;43322;52.230;5.702;2023-04-19T07:04:05;10.20;99.90
23719;DHT22;43322;52.230;5.702;2023-04-19T07:06:34;10.40;99.90
23719;DHT22;43322;52.230;5.702;2023-04-19T07:09:01;10.50;99.90
23719;DHT22;43322;52.230;5.702;2023-04-19T07:11:28;10.60;99.90
23719;DHT22;43322;52.230;5.702;2023-04-19T07:13:55;10.50;99.90
23719;DHT22;43322;52.230;5.702;2023-04-19T07:16:21;10.60;99.90
23719;DHT22;43322;52.230;5.702;2023-04-19T07:18:48;10.70;99.90
23719;DHT22;43322;52.230;5.702;2023-04-19T07:21:15;10.80;99.90
23719;DHT22;43322;52.230;5.702;2023-04-19T07:23:43;10.60;99.90
23719;DHT22;43322;52.230;5.702;2023-04-19T07:26:10;10.50;99.90
23719;DHT22;43322;52.230;5.702;2023-04-19T07:28:38;10.50;99.90
23719;DHT22;43322;52.230;5.702;2023-04-19T07:31:05;10.60;99.90
23719;DHT22;43322;52.230;5.702;2023-04-19T07:33:32;10.70;99.90
23719;DHT22;43322;52.230;5.702;2023-04-19T07:35:58;10.90;99.90
23719;DHT22;43322;52.230;5.702;2023-04-19T07:38:26;11.20;99.90
23719;DHT22;43322;52.230;5.702;2023-04-19T07:40:54;11.30;99.90
23719;DHT22;43322;52.230;5.702;2023-04-19T07:43:20;11.30;99.90
23719;DHT22;43322;52.230;5.702;2023-04-19T07:45:47;11.30;99.90
23719;DHT22;43322;52.230;5.702;2023-04-19T07:48:14;11.10;99.90
23719;DHT22;43322;52.230;5.702;2023-04-19T07:50:40;11.20;99.90
23719;DHT22;43322;52.230;5.702;2023-04-19T07:53:07;11.30;99.90
23719;DHT22;43322;52.230;5.702;2023-04-19T07:55:34;11.60;99.90
23719;DHT22;43322;52.230;5.702;2023-04-19T07:58:02;11.80;99.90
23719;DHT22;43322;52.230;5.702;2023-04-19T08:00:28;12.00;99.90
23719;DHT22;43322;52.230;5.702;2023-04-19T08:02:56;12.10;99.90
23719;DHT22;43322;52.230;5.702;2023-04-19T08:05:22;11.90;99.90
23719;DHT22;43322;52.230;5.702;2023-04-19T08:07:50;11.70;99.90
23719;DHT22;43322;52.230;5.702;2023-04-19T08:10:18;11.60;99.90
23719;DHT22;43322;52.230;5.702;2023-04-19T08:12:44;11.70;99.90
23719;DHT22;43322;52.230;5.702;2023-04-19T08:15:12;12.00;99.90
23719;DHT22;43322;52.230;5.702;2023-04-19T08:17:40;12.40;99.90
23719;DHT22;43322;52.230;5.702;2023-04-19T08:20:09;12.70;99.90
23719;DHT22;43322;52.230;5.702;2023-04-19T08:22:36;12.70;99.90
23719;DHT22;43322;52.230;5.702;2023-04-19T08:25:04;13.20;99.90
23719;DHT22;43322;52.230;5.702;2023-04-19T08:27:31;13.30;99.90
23719;DHT22;43322;52.230;5.702;2023-04-19T08:29:57;13.60;99.90
23719;DHT22;43322;52.230;5.702;2023-04-19T08:32:25;13.60;99.90
23719;DHT22;43322;52.230;5.702;2023-04-19T08:34:52;13.50;99.90
23719;DHT22;43322;52.230;5.702;2023-04-19T08:37:19;13.80;99.90
23719;DHT22;43322;52.230;5.702;2023-04-19T08:39:46;13.50;99.90
23719;DHT22;43322;52.230;5.702;2023-04-19T08:42:12;13.70;99.90
23719;DHT22;43322;52.230;5.702;2023-04-19T08:44:39;13.60;99.90
23719;DHT22;43322;52.230;5.702;2023-04-19T08:47:06;13.30;99.90
23719;DHT22;43322;52.230;5.702;2023-04-19T08:49:35;13.50;99.90
23719;DHT22;43322;52.230;5.702;2023-04-19T08:52:03;13.60;99.90
23719;DHT22;43322;52.230;5.702;2023-04-19T08:54:30;14.00;99.90
23719;DHT22;43322;52.230;5.702;2023-04-19T08:56:58;14.70;99.90
23719;DHT22;43322;52.230;5.702;2023-04-19T08:59:24;14.70;99.90
23719;DHT22;43322;52.230;5.702;2023-04-19T09:01:51;14.90;99.90
23719;DHT22;43322;52.230;5.702;2023-04-19T09:04:18;14.80;99.90
23719;DHT22;43322;52.230;5.702;2023-04-19T09:06:47;14.40;99.90
23719;DHT22;43322;52.230;5.702;2023-04-19T09:09:15;14.00;99.90
23719;DHT22;43322;52.230;5.702;2023-04-19T09:11:42;13.70;99.90
23719;DHT22;43322;52.230;5.702;2023-04-19T09:14:09;13.60;99.90
23719;DHT22;43322;52.230;5.702;2023-04-19T09:16:36;13.60;99.90
23719;DHT22;43322;52.230;5.702;2023-04-19T09:19:04;13.60;99.90
23719;DHT22;43322;52.230;5.702;2023-04-19T09:21:32;13.40;99.90
23719;DHT22;43322;52.230;5.702;2023-04-19T09:24:00;13.20;99.90
23719;DHT22;43322;52.230;5.702;2023-04-19T09:26:27;13.30;99.90
23719;DHT22;43322;52.230;5.702;2023-04-19T09:28:55;13.30;99.90
23719;DHT22;43322;52.230;5.702;2023-04-19T09:31:23;13.10;99.90
23719;DHT22;43322;52.230;5.702;2023-04-19T09:33:50;13.00;99.90
23719;DHT22;43322;52.230;5.702;2023-04-19T09:36:28;13.20;99.90
23719;DHT22;43322;52.230;5.702;2023-04-19T09:38:55;13.80;99.90
23719;DHT22;43322;52.230;5.702;2023-04-19T09:41:24;13.70;99.90
23719;DHT22;43322;52.230;5.702;2023-04-19T09:43:51;14.00;99.90
23719;DHT22;43322;52.230;5.702;2023-04-19T09:46:32;14.10;99.90
23719;DHT22;43322;52.230;5.702;2023-04-19T09:49:18;14.10;99.90
23719;DHT22;43322;52.230;5.702;2023-04-19T09:51:46;14.40;99.90
23719;DHT22;43322;52.230;5.702;2023-04-19T09:54:14;14.70;99.90
23719;DHT22;43322;52.230;5.702;2023-04-19T09:56:43;14.80;99.90
23719;DHT22;43322;52.230;5.702;2023-04-19T09:59:10;14.70;99.90
23719;DHT22;43322;52.230;5.702;2023-04-19T10:01:41;15.10;99.90
23719;DHT22;43322;52.230;5.702;2023-04-19T10:04:10;15.60;99.90
23719;DHT22;43322;52.230;5.702;2023-04-19T10:06:38;15.80;99.90
23719;DHT22;43322;52.230;5.702;2023-04-19T10:09:05;15.90;99.60
23719;DHT22;43322;52.230;5.702;2023-04-19T10:11:34;16.30;99.90
23719;DHT22;43322;52.230;5.702;2023-04-19T10:14:05;16.70;98.90
23719;DHT22;43322;52.230;5.702;2023-04-19T10:16:33;16.50;99.30
23719;DHT22;43322;52.230;5.702;2023-04-19T10:19:02;16.70;99.60
23719;DHT22;43322;52.230;5.702;2023-04-19T10:21:29;17.30;97.10
23719;DHT22;43322;52.230;5.702;2023-04-19T10:23:57;17.20;97.30
23719;DHT22;43322;52.230;5.702;2023-04-19T10:26:25;17.20;96.60
23719;DHT22;43322;52.230;5.702;2023-04-19T10:28:53;17.60;95.10
23719;DHT22;43322;52.230;5.702;2023-04-19T10:31:24;17.70;96.70
23719;DHT22;43322;52.230;5.702;2023-04-19T10:33:52;18.00;97.60
23719;DHT22;43322;52.230;5.702;2023-04-19T10:36:19;18.20;94.00
23719;DHT22;43322;52.230;5.702;2023-04-19T10:38:48;18.30;95.80
23719;DHT22;43322;52.230;5.702;2023-04-19T10:41:17;18.80;94.50
23719;DHT22;43322;52.230;5.702;2023-04-19T10:43:45;18.90;93.30
23719;DHT22;43322;52.230;5.702;2023-04-19T10:46:14;19.30;92.00
23719;DHT22;43322;52.230;5.702;2023-04-19T10:48:51;19.20;92.20
23719;DHT22;43322;52.230;5.702;2023-04-19T10:51:20;18.80;89.00
23719;DHT22;43322;52.230;5.702;2023-04-19T10:53:52;18.80;90.10
23719;DHT22;43322;52.230;5.702;2023-04-19T10:56:21;19.00;90.60
23719;DHT22;43322;52.230;5.702;2023-04-19T10:59:10;19.30;92.60
23719;DHT22;43322;52.230;5.702;2023-04-19T11:01:40;19.80;92.50
23719;DHT22;43322;52.230;5.702;2023-04-19T11:04:09;20.30;93.10
23719;DHT22;43322;52.230;5.702;2023-04-19T11:06:37;20.70;89.70
23719;DHT22;43322;52.230;5.702;2023-04-19T11:09:03;20.20;79.20
23719;DHT22;43322;52.230;5.702;2023-04-19T11:11:33;20.60;86.70
23719;DHT22;43322;52.230;5.702;2023-04-19T11:14:01;20.70;85.70
23719;DHT22;43322;52.230;5.702;2023-04-19T11:16:28;20.80;79.00
23719;DHT22;43322;52.230;5.702;2023-04-19T11:18:55;20.20;82.90
23719;DHT22;43322;52.230;5.702;2023-04-19T11:21:23;20.10;75.10
23719;DHT22;43322;52.230;5.702;2023-04-19T11:24:05;20.10;77.10
23719;DHT22;43322;52.230;5.702;2023-04-19T11:26:31;20.10;79.30
23719;DHT22;43322;52.230;5.702;2023-04-19T11:28:59;19.80;78.00
23719;DHT22;43322;52.230;5.702;2023-04-19T11:31:26;19.90;74.90
23719;DHT22;43322;52.230;5.702;2023-04-19T11:33:53;19.70;74.50
23719;DHT22;43322;52.230;5.702;2023-04-19T11:36:20;19.90;74.70
23719;DHT22;43322;52.230;5.702;2023-04-19T11:38:48;20.20;77.90
23719;DHT22;43322;52.230;5.702;2023-04-19T11:41:15;20.30;73.90
23719;DHT22;43322;52.230;5.702;2023-04-19T11:43:41;20.80;78.10
23719;DHT22;43322;52.230;5.702;2023-04-19T11:46:10;20.20;73.00
23719;DHT22;43322;52.230;5.702;2023-04-19T11:48:38;19.80;67.70
23719;DHT22;43322;52.230;5.702;2023-04-19T11:51:15;19.70;73.60
23719;DHT22;43322;52.230;5.702;2023-04-19T11:53:41;19.50;71.00
23719;DHT22;43322;52.230;5.702;2023-04-19T11:56:09;19.60;74.50
23719;DHT22;43322;52.230;5.702;2023-04-19T11:58:38;20.00;75.70
23719;DHT22;43322;52.230;5.702;2023-04-19T12:01:06;20.50;80.30
23719;DHT22;43322;52.230;5.702;2023-04-19T12:03:34;21.30;80.40
23719;DHT22;43322;52.230;5.702;2023-04-19T12:06:02;21.20;77.00
23719;DHT22;43322;52.230;5.702;2023-04-19T12:08:30;21.60;78.70
23719;DHT22;43322;52.230;5.702;2023-04-19T12:10:58;21.40;73.80
23719;DHT22;43322;52.230;5.702;2023-04-19T12:13:26;21.50;74.00
23719;DHT22;43322;52.230;5.702;2023-04-19T12:15:52;21.50;74.50
23719;DHT22;43322;52.230;5.702;2023-04-19T12:18:20;21.40;77.50
23719;DHT22;43322;52.230;5.702;2023-04-19T12:20:48;21.00;74.00
23719;DHT22;43322;52.230;5.702;2023-04-19T12:23:16;21.10;76.00
23719;DHT22;43322;52.230;5.702;2023-04-19T12:25:44;21.40;72.10
23719;DHT22;43322;52.230;5.702;2023-04-19T12:28:12;21.10;74.70
23719;DHT22;43322;52.230;5.702;2023-04-19T12:30:40;21.30;74.00
23719;DHT22;43322;52.230;5.702;2023-04-19T12:33:08;21.10;70.00
23719;DHT22;43322;52.230;5.702;2023-04-19T12:35:35;21.30;74.00
23719;DHT22;43322;52.230;5.702;2023-04-19T12:38:03;21.60;73.50
23719;DHT22;43322;52.230;5.702;2023-04-19T12:40:29;21.70;76.10
23719;DHT22;43322;52.230;5.702;2023-04-19T12:42:56;21.40;72.10
23719;DHT22;43322;52.230;5.702;2023-04-19T12:45:23;21.90;73.60
23719;DHT22;43322;52.230;5.702;2023-04-19T12:47:51;21.90;69.20
23719;DHT22;43322;52.230;5.702;2023-04-19T12:50:17;22.00;72.50
23719;DHT22;43322;52.230;5.702;2023-04-19T12:52:44;21.70;68.50
23719;DHT22;43322;52.230;5.702;2023-04-19T12:55:11;22.20;70.60
23719;DHT22;43322;52.230;5.702;2023-04-19T12:57:38;22.20;69.80
23719;DHT22;43322;52.230;5.702;2023-04-19T13:00:06;22.40;71.40
23719;DHT22;43322;52.230;5.702;2023-04-19T13:02:34;22.10;67.00
23719;DHT22;43322;52.230;5.702;2023-04-19T13:05:03;21.70;71.70
23719;DHT22;43322;52.230;5.702;2023-04-19T13:07:30;22.30;78.60
23719;DHT22;43322;52.230;5.702;2023-04-19T13:09:57;22.60;73.40
23719;DHT22;43322;52.230;5.702;2023-04-19T13:12:24;22.00;68.50
23719;DHT22;43322;52.230;5.702;2023-04-19T13:14:51;22.10;73.00
23719;DHT22;43322;52.230;5.702;2023-04-19T13:17:18;22.00;65.60
23719;DHT22;43322;52.230;5.702;2023-04-19T13:19:44;21.90;69.80
23719;DHT22;43322;52.230;5.702;2023-04-19T13:22:13;22.10;69.70
23719;DHT22;43322;52.230;5.702;2023-04-19T13:24:39;22.20;70.20
23719;DHT22;43322;52.230;5.702;2023-04-19T13:27:06;22.10;70.70
23719;DHT22;43322;52.230;5.702;2023-04-19T13:29:33;22.10;67.90
23719;DHT22;43322;52.230;5.702;2023-04-19T13:32:00;21.50;65.70
23719;DHT22;43322;52.230;5.702;2023-04-19T13:34:26;21.50;69.90
23719;DHT22;43322;52.230;5.702;2023-04-19T13:36:53;21.30;70.70
23719;DHT22;43322;52.230;5.702;2023-04-19T13:39:23;21.40;68.90
23719;DHT22;43322;52.230;5.702;2023-04-19T13:41:50;20.90;68.30
23719;DHT22;43322;52.230;5.702;2023-04-19T13:44:16;20.70;69.80
23719;DHT22;43322;52.230;5.702;2023-04-19T13:46:43;20.10;63.70
23719;DHT22;43322;52.230;5.702;2023-04-19T13:49:10;19.80;65.90
23719;DHT22;43322;52.230;5.702;2023-04-19T13:51:36;19.80;71.80
23719;DHT22;43322;52.230;5.702;2023-04-19T13:54:03;19.60;67.70
23719;DHT22;43322;52.230;5.702;2023-04-19T13:56:31;19.60;72.60
23719;DHT22;43322;52.230;5.702;2023-04-19T13:58:58;19.20;71.80
23719;DHT22;43322;52.230;5.702;2023-04-19T14:01:24;19.10;71.60
23719;DHT22;43322;52.230;5.702;2023-04-19T14:03:51;19.10;67.30
23719;DHT22;43322;52.230;5.702;2023-04-19T14:06:18;18.80;74.90
23719;DHT22;43322;52.230;5.702;2023-04-19T14:08:45;18.60;73.60
23719;DHT22;43322;52.230;5.702;2023-04-19T14:11:11;19.00;73.90
23719;DHT22;43322;52.230;5.702;2023-04-19T14:13:39;18.70;76.80
23719;DHT22;43322;52.230;5.702;2023-04-19T14:16:07;18.60;75.60
23719;DHT22;43322;52.230;5.702;2023-04-19T14:18:33;18.70;74.20
23719;DHT22;43322;52.230;5.702;2023-04-19T14:21:00;18.70;74.30
23719;DHT22;43322;52.230;5.702;2023-04-19T14:23:27;18.70;76.10
23719;DHT22;43322;52.230;5.702;2023-04-19T14:25:54;18.40;77.50
23719;DHT22;43322;52.230;5.702;2023-04-19T14:28:20;18.20;78.70
23719;DHT22;43322;52.230;5.702;2023-04-19T14:30:48;18.30;77.50
23719;DHT22;43322;52.230;5.702;2023-04-19T14:33:15;18.40;77.50
23719;DHT22;43322;52.230;5.702;2023-04-19T14:35:42;18.40;75.80
23719;DHT22;43322;52.230;5.702;2023-04-19T14:38:09;18.50;75.70
23719;DHT22;43322;52.230;5.702;2023-04-19T14:40:35;18.50;75.10
23719;DHT22;43322;52.230;5.702;2023-04-19T14:43:02;18.60;77.10
23719;DHT22;43322;52.230;5.702;2023-04-19T14:45:29;18.70;82.20
23719;DHT22;43322;52.230;5.702;2023-04-19T14:47:57;19.00;84.10
23719;DHT22;43322;52.230;5.702;2023-04-19T14:50:24;18.70;74.20
23719;DHT22;43322;52.230;5.702;2023-04-19T14:52:50;18.60;77.10
23719;DHT22;43322;52.230;5.702;2023-04-19T14:55:19;18.40;76.50
23719;DHT22;43322;52.230;5.702;2023-04-19T14:57:47;18.50;76.90
23719;DHT22;43322;52.230;5.702;2023-04-19T15:00:14;18.40;76.10
23719;DHT22;43322;52.230;5.702;2023-04-19T15:02:41;18.20;74.70
23719;DHT22;43322;52.230;5.702;2023-04-19T15:05:09;18.20;76.30
23719;DHT22;43322;52.230;5.702;2023-04-19T15:07:37;18.00;74.90
23719;DHT22;43322;52.230;5.702;2023-04-19T15:10:04;18.40;81.70
23719;DHT22;43322;52.230;5.702;2023-04-19T15:12:31;18.40;78.20
23719;DHT22;43322;52.230;5.702;2023-04-19T15:14:58;18.40;78.80
23719;DHT22;43322;52.230;5.702;2023-04-19T15:17:24;18.70;78.40
23719;DHT22;43322;52.230;5.702;2023-04-19T15:19:51;18.50;79.50
23719;DHT22;43322;52.230;5.702;2023-04-19T15:22:19;18.50;78.00
23719;DHT22;43322;52.230;5.702;2023-04-19T15:24:46;18.30;76.10
23719;DHT22;43322;52.230;5.702;2023-04-19T15:27:12;18.00;83.00
23719;DHT22;43322;52.230;5.702;2023-04-19T15:29:39;18.10;80.70
23719;DHT22;43322;52.230;5.702;2023-04-19T15:32:06;18.30;81.60
23719;DHT22;43322;52.230;5.702;2023-04-19T15:34:33;18.30;79.50
23719;DHT22;43322;52.230;5.702;2023-04-19T15:36:59;18.00;81.30
23719;DHT22;43322;52.230;5.702;2023-04-19T15:39:28;18.20;82.00